Time;durP1;ratioP1;P1;durP2;ratioP2;P2;SDS_P1;SDS_P2;PMS_P1;PMS_P2;Temp;Humidity;BMP_temperature;BMP_pressure;BME280_temperature;BME280_humidity;BME280_pressure;Samples;Min_cycle;Max_cycle;Signal;HPM_P1;HPM_P2
2021/09/25 00:00:34;;;;;;;4.13;2.17;;;;;;;22.39;52.45;101497.88;5014789;28;20354;-62
2021/09/25 00:03:02;;;;;;;3.78;1.70;;;;;;;22.40;52.31;101492.41;5015019;28;20468;-62
2021/09/25 00:05:33;;;;;;;3.72;2.00;;;;;;;22.38;52.20;101483.75;5015223;28;20029;-62
2021/09/25 00:07:58;;;;;;;4.90;2.05;;;;;;;22.39;52.38;101485.44;5014150;28;20394;-62
2021/09/25 00:10:24;;;;;;;3.60;1.90;;;;;;;22.39;52.56;101496.03;5015326;28;20489;-62
2021/09/25 00:12:54;;;;;;;6.18;2.13;;;;;;;22.36;52.33;101493.66;5014850;28;20040;-62
2021/09/25 00:15:21;;;;;;;4.20;1.98;;;;;;;22.35;52.64;101489.34;5014367;28;20026;-62
2021/09/25 00:17:47;;;;;;;3.78;1.98;;;;;;;22.35;52.32;101491.13;5015230;28;20022;-61
2021/09/25 00:20:14;;;;;;;4.00;1.80;;;;;;;22.34;52.32;101485.00;5014473;28;20028;-62
2021/09/25 00:22:42;;;;;;;4.25;2.10;;;;;;;22.34;52.33;101479.69;5014908;28;20033;-62
2021/09/25 00:25:11;;;;;;;3.67;1.90;;;;;;;22.32;52.58;101486.09;5014674;28;20033;-61
2021/09/25 00:27:37;;;;;;;4.28;2.05;;;;;;;22.33;52.45;101482.47;5014302;28;20032;-62
2021/09/25 00:30:06;;;;;;;3.45;1.70;;;;;;;22.33;52.30;101487.78;5014769;28;20022;-61
2021/09/25 00:32:34;;;;;;;4.22;1.90;;;;;;;22.33;52.32;101493.94;5015122;28;20026;-62
2021/09/25 00:35:00;;;;;;;4.28;1.88;;;;;;;22.31;52.22;101490.59;5013806;28;20061;-61
2021/09/25 00:37:28;;;;;;;4.50;2.00;;;;;;;22.31;52.24;101495.91;5014786;28;20061;-62
2021/09/25 00:39:53;;;;;;;3.60;1.83;;;;;;;22.32;51.99;101502.91;5014159;28;20477;-61
2021/09/25 00:42:18;;;;;;;3.75;1.95;;;;;;;22.27;52.10;101490.00;5013792;28;20148;-61
2021/09/25 00:44:44;;;;;;;4.15;1.70;;;;;;;22.30;52.38;101496.88;5014517;28;20022;-61
2021/09/25 00:47:15;;;;;;;3.92;2.00;;;;;;;22.28;52.44;101490.81;5014202;28;20033;-63
2021/09/25 00:49:41;;;;;;;4.30;2.10;;;;;;;22.27;52.10;101490.00;5013540;28;20026;-62
2021/09/25 00:52:09;;;;;;;4.40;1.90;;;;;;;22.26;52.31;101488.31;5013853;28;20084;-62
2021/09/25 00:54:35;;;;;;;4.72;1.83;;;;;;;22.27;52.28;101495.31;5013996;28;20049;-61
2021/09/25 00:57:01;;;;;;;4.03;2.00;;;;;;;22.29;52.34;101492.50;5013073;28;20473;-61
2021/09/25 00:59:27;;;;;;;5.03;1.80;;;;;;;22.28;52.30;101501.44;5014140;28;20022;-61
2021/09/25 01:01:53;;;;;;;4.10;1.95;;;;;;;22.27;52.14;101499.75;5013629;28;20028;-61
2021/09/25 01:04:19;;;;;;;3.72;1.65;;;;;;;22.28;52.37;101501.44;5012973;28;20482;-61
2021/09/25 01:06:47;;;;;;;3.65;1.92;;;;;;;22.26;51.84;101493.63;5013976;28;20029;-61
2021/09/25 01:09:13;;;;;;;3.42;1.60;;;;;;;22.26;51.92;101496.28;5013415;28;20095;-61
2021/09/25 01:11:39;;;;;;;3.67;1.98;;;;;;;22.25;51.92;101493.75;5013252;28;20474;-61
2021/09/25 01:14:05;;;;;;;4.05;1.80;;;;;;;22.25;52.05;101507.03;5013430;28;20389;-61
2021/09/25 01:16:30;;;;;;;3.90;1.77;;;;;;;22.23;52.16;101498.38;5012925;28;20022;-62
2021/09/25 01:18:56;;;;;;;3.50;1.80;;;;;;;22.23;52.17;101495.72;5013313;28;20088;-62
2021/09/25 01:21:21;;;;;;;3.70;1.52;;;;;;;22.22;52.08;101492.22;5013597;28;20026;-61
2021/09/25 01:23:46;;;;;;;3.47;1.50;;;;;;;22.21;52.35;101501.16;5012846;28;20033;-61
2021/09/25 01:26:12;;;;;;;3.45;1.80;;;;;;;22.21;52.27;101490.53;5013603;28;20030;-61
2021/09/25 01:28:40;;;;;;;3.83;1.70;;;;;;;22.21;52.02;101493.19;5013575;28;20101;-61
2021/09/25 01:31:08;;;;;;;4.43;1.88;;;;;;;22.22;52.14;101494.03;5012548;28;20110;-61
2021/09/25 01:33:39;;;;;;;3.63;1.60;;;;;;;22.21;51.99;101487.06;5013477;28;20445;-61
2021/09/25 01:36:09;;;;;;;3.55;1.70;;;;;;;22.20;52.35;101496.81;5012936;28;20084;-62
2021/09/25 01:38:36;;;;;;;3.13;1.60;;;;;;;22.21;52.19;101500.31;5012866;28;20030;-61
2021/09/25 01:41:01;;;;;;;3.58;1.80;;;;;;;22.19;52.15;101505.78;5013141;28;20018;-62
2021/09/25 01:43:29;;;;;;;2.70;1.40;;;;;;;22.18;52.51;101495.28;5013382;28;20545;-62
2021/09/25 01:45:54;;;;;;;3.42;1.63;;;;;;;22.18;52.02;101496.13;5012201;28;20263;-60
2021/09/25 01:48:20;;;;;;;3.72;1.77;;;;;;;22.17;52.14;101506.88;5013102;28;20033;-62
2021/09/25 01:50:48;;;;;;;2.80;1.40;;;;;;;22.18;52.29;101505.91;5013070;28;20026;-61
2021/09/25 01:53:21;;;;;;;3.58;1.50;;;;;;;22.18;52.34;101500.59;5012584;28;20279;-61
2021/09/25 01:55:47;;;;;;;3.15;1.60;;;;;;;22.18;52.13;101496.13;5013246;28;20037;-61
2021/09/25 01:58:12;;;;;;;3.40;1.60;;;;;;;22.18;52.25;101496.13;5013046;28;20113;-62
2021/09/25 02:00:37;;;;;;;3.08;1.50;;;;;;;22.18;52.23;101492.63;5012325;28;20022;-61
2021/09/25 02:03:06;;;;;;;3.00;1.45;;;;;;;22.17;52.54;101485.63;5012318;28;20053;-61
2021/09/25 02:05:32;;;;;;;3.38;1.70;;;;;;;22.17;52.23;101497.06;5012943;28;20483;-61
2021/09/25 02:07:57;;;;;;;3.72;1.63;;;;;;;22.17;52.34;101490.94;5011898;28;20036;-61
2021/09/25 02:10:22;;;;;;;3.80;1.73;;;;;;;22.15;52.29;101491.06;5013015;28;20028;-63
2021/09/25 02:12:48;;;;;;;3.67;1.75;;;;;;;22.15;51.99;101493.72;5011768;28;20025;-61
2021/09/25 02:15:13;;;;;;;3.40;1.60;;;;;;;22.16;52.27;101492.75;5012636;28;20046;-61
2021/09/25 02:17:40;;;;;;;3.83;1.60;;;;;;;22.15;52.19;101495.56;5012671;28;20539;-61
2021/09/25 02:20:08;;;;;;;3.28;1.52;;;;;;;22.14;52.29;101489.38;5011009;28;20393;-61
2021/09/25 02:22:33;;;;;;;3.50;1.38;;;;;;;22.14;52.29;101486.72;5012523;28;20465;-61
2021/09/25 02:24:59;;;;;;;2.90;1.40;;;;;;;22.13;52.12;101487.72;5012477;28;20037;-61
2021/09/25 02:27:24;;;;;;;3.13;1.42;;;;;;;22.14;52.18;101497.34;5012051;28;20113;-62
2021/09/25 02:29:49;;;;;;;3.25;1.60;;;;;;;22.13;52.17;101490.38;5012328;28;20445;-60
2021/09/25 02:32:14;;;;;;;2.87;1.43;;;;;;;22.13;52.16;101485.06;5012572;28;20026;-61
2021/09/25 02:34:40;;;;;;;3.97;1.70;;;;;;;22.13;52.16;101486.88;5011988;28;20302;-61
2021/09/25 02:37:06;;;;;;;3.47;1.60;;;;;;;22.13;52.07;101482.41;5012254;28;20763;-62
2021/09/25 02:39:32;;;;;;;3.35;1.60;;;;;;;22.13;52.25;101484.22;5012560;28;20033;-62
2021/09/25 02:41:58;;;;;;;3.85;1.70;;;;;;;22.12;52.34;101485.22;5011589;28;20017;-62
2021/09/25 02:44:24;;;;;;;2.92;1.35;;;;;;;22.12;52.12;101472.75;5012486;28;20029;-61
2021/09/25 02:46:49;;;;;;;3.53;1.42;;;;;;;22.13;52.27;101481.56;5011991;28;20378;-61
2021/09/25 02:49:16;;;;;;;3.33;1.40;;;;;;;22.14;52.24;101480.59;5011664;28;20473;-61
2021/09/25 02:51:41;;;;;;;2.80;1.40;;;;;;;22.13;52.11;101486.88;5012562;28;20139;-60
2021/09/25 02:54:07;;;;;;;2.88;1.33;;;;;;;22.11;52.39;101484.34;5012137;28;20573;-62
2021/09/25 02:56:32;;;;;;;2.90;1.40;;;;;;;22.13;52.06;101492.16;5011597;28;20034;-63
2021/09/25 02:59:03;;;;;;;3.83;1.73;;;;;;;22.13;52.19;101492.16;5012048;28;20492;-61
2021/09/25 03:01:29;;;;;;;3.25;1.40;;;;;;;22.13;52.23;101484.22;5012267;28;20351;-61
2021/09/25 03:03:54;;;;;;;3.22;1.50;;;;;;;22.13;52.27;101492.16;5010888;28;20478;-61
2021/09/25 03:06:27;;;;;;;3.53;1.50;;;;;;;22.13;52.24;101490.38;5012645;28;20022;-61
2021/09/25 03:08:53;;;;;;;3.42;1.40;;;;;;;22.12;52.26;101488.69;5012142;28;20029;-61
2021/09/25 03:11:21;;;;;;;4.70;1.70;;;;;;;22.10;52.24;101488.81;5011405;28;20052;-61
2021/09/25 03:13:46;;;;;;;3.47;1.50;;;;;;;22.09;52.21;101489.78;5012103;28;20026;-61
2021/09/25 03:16:13;;;;;;;2.92;1.48;;;;;;;22.09;52.36;101481.00;5010976;28;20053;-61
2021/09/25 03:18:41;;;;;;;3.55;1.50;;;;;;;22.08;52.07;101485.47;5012046;28;20018;-61
2021/09/25 03:21:06;;;;;;;3.42;1.45;;;;;;;22.09;52.52;101484.47;5011860;28;20064;-61
2021/09/25 03:23:31;;;;;;;3.30;1.40;;;;;;;22.08;52.12;101488.13;5011585;28;20129;-62
2021/09/25 03:25:57;;;;;;;3.20;1.40;;;;;;;22.09;52.39;101487.13;5011865;28;20263;-61
2021/09/25 03:28:22;;;;;;;3.03;1.35;;;;;;;22.08;52.43;101490.78;5012046;28;20029;-61
2021/09/25 03:30:47;;;;;;;2.85;1.27;;;;;;;22.09;52.17;101494.28;5011243;28;20501;-61
2021/09/25 03:33:13;;;;;;;3.03;1.40;;;;;;;22.08;52.39;101497.91;5015998;28;20037;-61
2021/09/25 03:35:46;;;;;;;3.20;1.50;;;;;;;22.07;52.15;101491.75;5016028;28;20049;-62
2021/09/25 03:38:13;;;;;;;3.83;1.40;;;;;;;22.08;52.32;101496.09;5014677;28;20847;-61
2021/09/25 03:40:41;;;;;;;3.05;1.40;;;;;;;22.09;52.27;101488.97;5015757;28;20268;-61
2021/09/25 03:43:08;;;;;;;3.10;1.52;;;;;;;22.09;52.18;101489.78;5015168;28;20022;-60
2021/09/25 03:45:34;;;;;;;3.00;1.27;;;;;;;22.08;52.30;101484.66;5015054;28;20385;-62
2021/09/25 03:47:59;;;;;;;3.92;1.60;;;;;;;22.08;52.40;101482.81;5015416;28;20531;-61
2021/09/25 03:50:25;;;;;;;2.80;1.30;;;;;;;22.07;52.32;101478.47;5015598;28;20547;-61
2021/09/25 03:52:51;;;;;;;3.28;1.40;;;;;;;22.08;52.21;101482.00;5014521;28;20038;-61
2021/09/25 03:55:16;;;;;;;2.60;1.20;;;;;;;22.07;52.34;101472.34;5015380;28;20140;-62
2021/09/25 03:57:41;;;;;;;3.80;1.48;;;;;;;22.08;52.50;101474.03;5015228;28;20322;-61
2021/09/25 04:00:07;;;;;;;3.10;1.50;;;;;;;22.06;52.11;101475.97;5014256;28;20033;-60
2021/09/25 04:02:33;;;;;;;3.00;1.40;;;;;;;22.05;52.02;101480.44;5014901;28;21079;-61
2021/09/25 04:04:58;;;;;;;3.03;1.40;;;;;;;22.05;52.43;101474.28;5014904;28;20036;-61
2021/09/25 04:07:23;;;;;;;2.70;1.27;;;;;;;22.04;52.15;101478.75;5014520;28;20785;-61
2021/09/25 04:09:48;;;;;;;2.97;1.45;;;;;;;22.02;52.40;101483.34;5014728;28;20025;-62
2021/09/25 04:12:14;;;;;;;4.30;1.27;;;;;;;22.04;52.56;101483.22;5014763;28;20074;-61
2021/09/25 04:14:39;;;;;;;3.80;1.60;;;;;;;22.04;52.44;101481.41;5014607;28;20282;-62
2021/09/25 04:17:04;;;;;;;3.50;1.45;;;;;;;22.03;52.29;101477.09;5014803;28;20033;-62
2021/09/25 04:19:30;;;;;;;3.13;1.17;;;;;;;22.03;52.50;101481.53;5014278;28;20026;-60
2021/09/25 04:21:55;;;;;;;2.67;1.27;;;;;;;22.02;52.70;101475.41;5014690;28;20033;-61
2021/09/25 04:24:20;;;;;;;3.40;1.52;;;;;;;22.02;52.39;101477.22;5014929;28;20035;-62
2021/09/25 04:26:46;;;;;;;2.67;1.23;;;;;;;22.01;52.65;101475.53;5013817;28;20067;-61
2021/09/25 04:29:14;;;;;;;2.28;1.17;;;;;;;22.02;52.24;101482.53;5014489;28;20018;-60
2021/09/25 04:31:40;;;;;;;2.90;1.30;;;;;;;22.01;52.22;101479.00;5014676;28;20037;-61
2021/09/25 04:34:06;;;;;;;2.70;1.30;;;;;;;22.01;52.53;101473.69;5013364;28;20054;-62
2021/09/25 04:36:40;;;;;;;2.78;1.30;;;;;;;22.01;52.38;101475.53;5014970;28;20092;-61
2021/09/25 04:39:05;;;;;;;3.10;1.40;;;;;;;21.99;52.23;101470.34;5014553;28;20072;-62
2021/09/25 04:41:34;;;;;;;3.03;1.40;;;;;;;21.99;52.53;101469.53;5013933;28;20151;-62
2021/09/25 04:43:59;;;;;;;3.38;1.50;;;;;;;22.00;52.27;101465.88;5013581;28;20104;-61
2021/09/25 04:46:25;;;;;;;3.45;1.40;;;;;;;22.00;52.35;101469.41;5014393;28;20058;-61
2021/09/25 04:48:50;;;;;;;3.20;1.20;;;;;;;22.00;52.29;101471.19;5013027;28;20100;-62
2021/09/25 04:51:20;;;;;;;2.42;1.33;;;;;;;21.99;52.47;101470.34;5014092;28;20021;-61
2021/09/25 04:53:46;;;;;;;3.33;1.40;;;;;;;22.01;52.44;101467.56;5014053;28;20397;-62
2021/09/25 04:56:11;;;;;;;3.05;1.20;;;;;;;22.00;52.33;101471.19;5012945;28;20030;-61
2021/09/25 04:58:38;;;;;;;2.85;1.40;;;;;;;21.99;52.34;101465.06;5014299;28;20417;-62
2021/09/25 05:01:05;;;;;;;3.08;1.40;;;;;;;22.00;52.32;101479.16;5013459;28;20465;-62
2021/09/25 05:03:30;;;;;;;3.20;1.25;;;;;;;21.99;52.34;101472.19;5013075;28;20088;-62
2021/09/25 05:05:56;;;;;;;3.78;1.45;;;;;;;22.00;52.14;101464.09;5013633;28;20486;-61
2021/09/25 05:08:21;;;;;;;2.80;1.38;;;;;;;22.00;52.31;101464.09;5013900;28;20036;-61
2021/09/25 05:10:49;;;;;;;3.57;1.57;;;;;;;22.00;52.31;101465.88;5013276;28;20030;-62
2021/09/25 05:13:14;;;;;;;3.92;1.58;;;;;;;21.99;52.29;101458.91;5013706;28;20275;-62
2021/09/25 05:15:39;;;;;;;4.10;1.70;;;;;;;21.98;52.29;101460.69;5013120;28;20044;-62
2021/09/25 05:18:11;;;;;;;3.23;1.30;;;;;;;21.97;52.28;101474.97;5013751;28;20026;-62
2021/09/25 05:20:38;;;;;;;3.45;1.35;;;;;;;21.98;52.19;101470.50;5013418;28;20275;-61
2021/09/25 05:23:04;;;;;;;3.10;1.40;;;;;;;21.97;52.48;101477.63;5012539;28;20022;-62
2021/09/25 05:25:29;;;;;;;2.97;1.30;;;;;;;21.97;52.37;101477.63;5013479;28;20022;-61
2021/09/25 05:27:54;;;;;;;2.63;1.40;;;;;;;21.96;52.35;101475.94;5013364;28;20034;-61
2021/09/25 05:30:22;;;;;;;3.42;1.63;;;;;;;21.96;52.44;101475.94;5012787;28;20351;-61
2021/09/25 05:32:48;;;;;;;3.15;1.40;;;;;;;21.95;52.44;101474.25;5013160;28;20030;-61
2021/09/25 05:35:13;;;;;;;3.10;1.48;;;;;;;21.95;52.54;101478.72;5013444;28;20022;-61
2021/09/25 05:37:39;;;;;;;4.20;1.60;;;;;;;21.95;52.49;101474.25;5012695;28;20110;-61
2021/09/25 05:40:08;;;;;;;3.17;1.42;;;;;;;21.95;52.12;101479.56;5013256;28;20101;-60
2021/09/25 05:42:33;;;;;;;5.18;1.70;;;;;;;21.94;52.45;101477.88;5013250;28;20037;-62
2021/09/25 05:44:59;;;;;;;3.83;1.70;;;;;;;21.93;52.31;101479.69;5012360;28;20033;-61
2021/09/25 05:47:25;;;;;;;3.55;1.58;;;;;;;21.95;52.59;101484.03;5013598;28;20032;-62
2021/09/25 05:49:51;;;;;;;2.50;1.15;;;;;;;21.93;52.42;101481.50;5012882;28;20092;-61
2021/09/25 05:52:17;;;;;;;3.17;1.33;;;;;;;21.93;52.28;101485.00;5012485;28;20029;-60
2021/09/25 05:54:48;;;;;;;3.53;1.73;;;;;;;21.90;52.76;101484.44;5013134;28;20057;-61
2021/09/25 05:57:13;;;;;;;3.40;1.80;;;;;;;21.84;53.04;101483.16;5012920;28;20026;-61
2021/09/25 05:59:39;;;;;;;3.60;1.60;;;;;;;21.79;52.93;101482.69;5012403;28;20018;-62
2021/09/25 06:02:05;;;;;;;3.40;1.60;;;;;;;21.75;53.19;101483.97;5012995;28;20056;-60
2021/09/25 06:04:32;;;;;;;3.38;1.50;;;;;;;21.68;53.31;101478.34;5012920;28;20449;-60
2021/09/25 06:06:57;;;;;;;3.60;1.60;;;;;;;21.65;53.37;101478.63;5011770;28;20075;-60
2021/09/25 06:09:22;;;;;;;2.95;1.33;;;;;;;21.62;53.45;101478.88;5012769;28;20022;-59
2021/09/25 06:11:51;;;;;;;3.37;1.53;;;;;;;21.59;53.44;101479.16;5012719;28;20033;-61
2021/09/25 06:14:17;;;;;;;3.33;1.48;;;;;;;21.56;53.42;101482.88;5013287;28;20271;-61
2021/09/25 06:16:42;;;;;;;2.78;1.45;;;;;;;21.56;53.75;101488.19;5012739;28;20358;-61
2021/09/25 06:19:07;;;;;;;4.33;2.03;;;;;;;21.58;53.72;101485.41;5011727;28;20099;-61
2021/09/25 06:21:33;;;;;;;3.58;1.67;;;;;;;21.56;53.91;101485.53;5012637;28;20267;-61
2021/09/25 06:23:58;;;;;;;3.35;1.63;;;;;;;21.56;53.83;101488.19;5012444;28;20029;-61
2021/09/25 06:26:28;;;;;;;3.57;1.50;;;;;;;21.56;53.79;101495.31;5012097;28;20121;-62
2021/09/25 06:28:54;;;;;;;3.85;1.75;;;;;;;21.59;53.95;101500.34;5012415;28;20294;-63
2021/09/25 06:31:25;;;;;;;3.67;1.63;;;;;;;21.59;54.17;101500.34;5012479;28;20465;-65
2021/09/25 06:33:53;;;;;;;4.15;1.77;;;;;;;21.60;54.30;101499.38;5011494;28;20029;-63
2021/09/25 06:36:18;;;;;;;4.00;1.58;;;;;;;21.61;54.50;101498.41;5012719;28;20022;-64
2021/09/25 06:38:43;;;;;;;5.13;2.03;;;;;;;21.65;54.14;101501.63;5012552;28;20049;-62
2021/09/25 06:41:09;;;;;;;6.22;1.95;;;;;;;21.68;54.30;101506.66;5011452;28;20275;-67
2021/09/25 06:43:34;;;;;;;4.57;1.80;;;;;;;21.68;54.31;101498.72;5012339;28;20049;-65
2021/09/25 06:46:00;;;;;;;4.30;1.92;;;;;;;21.66;54.54;101498.84;5012068;28;20075;-64
2021/09/25 06:48:28;;;;;;;3.65;1.80;;;;;;;21.65;54.59;101494.53;5011468;28;20489;-66
2021/09/25 06:50:53;;;;;;;4.40;1.67;;;;;;;21.66;54.53;101498.00;5011771;28;20025;-67
2021/09/25 06:53:19;;;;;;;3.80;1.80;;;;;;;21.67;54.48;101502.34;5012159;28;20044;-65
2021/09/25 06:55:47;;;;;;;4.43;1.70;;;;;;;21.66;54.47;101498.84;5011475;28;20077;-63
2021/09/25 06:58:19;;;;;;;4.95;1.90;;;;;;;21.65;54.73;101494.53;5012414;28;20026;-62
2021/09/25 07:00:47;;;;;;;4.78;2.30;;;;;;;21.67;54.57;101497.06;5012433;28;20026;-60
2021/09/25 07:03:14;;;;;;;5.18;2.03;;;;;;;21.66;54.52;101501.50;5011373;28;20073;-62
2021/09/25 07:05:40;;;;;;;3.75;1.83;;;;;;;21.67;54.91;101497.06;5012531;28;20030;-64
2021/09/25 07:08:05;;;;;;;4.50;2.00;;;;;;;21.68;54.62;101498.72;5015369;28;20530;-63
2021/09/25 07:10:33;;;;;;;4.70;1.90;;;;;;;21.69;54.75;101498.59;5015915;28;20108;-66
2021/09/25 07:12:58;;;;;;;5.03;1.80;;;;;;;21.72;54.72;101505.44;5015748;28;20156;-66
2021/09/25 07:15:24;;;;;;;5.55;2.78;;;;;;;21.72;54.90;101508.09;5015313;28;20491;-65
2021/09/25 07:17:49;;;;;;;4.70;1.73;;;;;;;21.76;54.80;101513.97;5015531;28;20025;-62
2021/09/25 07:20:17;;;;;;;5.05;1.83;;;;;;;21.75;54.93;101513.16;5015765;28;20041;-64
2021/09/25 07:22:51;;;;;;;5.57;2.22;;;;;;;21.75;54.92;101518.44;5015143;28;20025;-66
2021/09/25 07:25:21;;;;;;;5.57;2.15;;;;;;;21.74;54.96;101516.75;5016060;28;20146;-68
2021/09/25 07:27:47;;;;;;;5.13;2.03;;;;;;;21.77;54.70;101518.31;5016083;28;20030;-68
2021/09/25 07:30:13;;;;;;;4.40;2.10;;;;;;;21.77;54.85;101518.31;5014972;28;20057;-66
2021/09/25 07:32:39;;;;;;;5.15;2.08;;;;;;;21.78;54.78;101520.84;5016035;28;20061;-65
2021/09/25 07:35:05;;;;;;;3.42;1.77;;;;;;;21.78;54.63;101527.94;5015615;28;20100;-67
2021/09/25 07:37:30;;;;;;;4.38;1.80;;;;;;;21.81;54.84;101532.97;5014842;28;20476;-63
2021/09/25 07:39:56;;;;;;;5.27;2.37;;;;;;;21.83;54.87;101528.41;5015320;28;20182;-66
2021/09/25 07:42:21;;;;;;;3.97;1.90;;;;;;;21.83;54.67;101529.22;5015692;28;20673;-63
2021/09/25 07:44:47;;;;;;;4.45;2.10;;;;;;;21.88;54.46;101531.50;5014624;28;20457;-66
2021/09/25 07:47:13;;;;;;;5.57;1.88;;;;;;;21.87;54.44;101535.97;5015398;28;20026;-63
2021/09/25 07:49:38;;;;;;;5.43;2.25;;;;;;;21.87;54.72;101535.97;5015437;28;20034;-67
2021/09/25 07:52:04;;;;;;;5.43;2.05;;;;;;;21.85;54.70;101534.41;5014178;28;20022;-66
2021/09/25 07:54:30;;;;;;;4.50;2.15;;;;;;;21.85;54.70;101534.41;5015496;28;20064;-65
2021/09/25 07:56:55;;;;;;;3.70;1.80;;;;;;;21.85;54.78;101543.19;5014723;28;20084;-65
2021/09/25 07:59:20;;;;;;;5.07;1.92;;;;;;;21.87;54.89;101543.06;5014164;28;20268;-63
2021/09/25 08:01:46;;;;;;;3.08;1.60;;;;;;;21.86;54.73;101550.19;5014989;28;20034;-64
2021/09/25 08:04:14;;;;;;;3.90;1.90;;;;;;;21.87;54.75;101546.59;5014502;28;20049;-64
2021/09/25 08:06:39;;;;;;;7.97;2.10;;;;;;;21.88;54.82;101550.91;5014326;28;20473;-66
2021/09/25 08:09:04;;;;;;;5.10;2.00;;;;;;;21.89;54.85;101554.41;5014795;28;20022;-65
2021/09/25 08:11:30;;;;;;;3.47;1.88;;;;;;;21.91;54.72;101558.59;5014166;28;20022;-65
2021/09/25 08:13:55;;;;;;;5.33;2.20;;;;;;;21.92;54.68;101554.13;5010517;28;20326;-68
2021/09/25 08:16:20;;;;;;;5.40;2.00;;;;;;;21.96;54.57;101558.19;5003182;28;20300;-68
2021/09/25 08:18:45;;;;;;;4.73;2.30;;;;;;;22.00;54.49;101562.28;4992025;28;20680;-66
2021/09/25 08:21:16;;;;;;;4.22;1.95;;;;;;;22.01;54.34;101566.59;4993990;28;20276;-66
2021/09/25 08:23:42;;;;;;;5.75;2.28;;;;;;;22.02;54.53;101554.19;4998508;28;20036;-70
2021/09/25 08:26:07;;;;;;;5.07;2.05;;;;;;;22.06;54.71;101555.59;5011969;28;20112;-67
2021/09/25 08:28:35;;;;;;;4.75;2.08;;;;;;;22.10;54.36;101562.31;5013424;28;20035;-70
2021/09/25 08:31:00;;;;;;;4.30;2.50;;;;;;;22.16;54.34;101561.78;5014163;28;20369;-65
2021/09/25 08:33:35;;;;;;;4.22;2.40;;;;;;;22.23;54.12;101562.91;5012598;28;20017;-66
2021/09/25 08:36:01;;;;;;;5.25;2.47;;;;;;;22.28;54.15;101570.47;5011713;28;20520;-66
2021/09/25 08:38:27;;;;;;;6.70;2.30;;;;;;;22.34;53.86;101571.81;5012982;28;20448;-64
2021/09/25 08:40:52;;;;;;;4.47;2.25;;;;;;;22.37;53.93;101579.50;5012545;28;20105;-67
2021/09/25 08:43:18;;;;;;;6.30;2.33;;;;;;;22.35;53.73;101578.78;5012737;28;20025;-68
2021/09/25 08:45:43;;;;;;;4.45;1.98;;;;;;;22.34;53.64;101582.41;5013237;28;20030;-69
2021/09/25 08:48:10;;;;;;;3.88;1.90;;;;;;;22.32;53.64;101581.69;5010948;28;20045;-67
2021/09/25 08:50:36;;;;;;;3.63;1.70;;;;;;;22.32;53.84;101582.56;5012918;28;20026;-67
2021/09/25 08:53:04;;;;;;;5.68;2.05;;;;;;;22.31;53.66;101588.00;5012644;28;20064;-67
2021/09/25 08:55:29;;;;;;;3.47;1.80;;;;;;;22.28;53.90;101586.41;5011383;28;20022;-68
2021/09/25 08:57:57;;;;;;;4.32;2.13;;;;;;;22.27;53.97;101590.03;5012161;28;20037;-67
2021/09/25 09:00:42;;;;;;;5.28;2.10;;;;;;;22.27;53.77;101588.22;5012361;28;20029;-67
2021/09/25 09:03:18;;;;;;;6.60;2.15;;;;;;;22.26;53.98;101585.72;5011635;28;20375;-66
2021/09/25 09:05:43;;;;;;;4.75;2.35;;;;;;;22.28;53.63;101589.06;5013390;28;20060;-68
2021/09/25 09:08:09;;;;;;;3.92;2.10;;;;;;;22.28;53.94;101595.19;5012906;28;20422;-71
2021/09/25 09:10:36;;;;;;;6.07;2.63;;;;;;;22.33;53.79;101594.84;5005746;28;20549;-71
2021/09/25 09:13:02;;;;;;;4.75;2.20;;;;;;;22.35;53.82;101600.88;5011326;28;20176;-69
2021/09/25 09:15:39;;;;;;;5.55;2.40;;;;;;;22.35;53.85;101608.84;5012153;28;20095;-69
2021/09/25 09:18:19;;;;;;;4.43;2.10;;;;;;;22.34;53.59;101604.50;5011801;28;20042;-70
2021/09/25 09:21:00;;;;;;;4.07;1.88;;;;;;;22.39;53.62;101609.41;5012137;28;20033;-70
2021/09/25 09:23:25;;;;;;;6.15;2.35;;;;;;;22.41;53.48;101615.41;5012058;28;20030;-67
2021/09/25 09:26:03;;;;;;;4.63;2.20;;;;;;;22.41;53.24;101613.63;5011349;28;20026;-68
2021/09/25 09:28:31;;;;;;;3.80;2.03;;;;;;;22.44;53.59;101612.50;5011414;28;20267;-68
2021/09/25 09:31:00;;;;;;;3.90;2.13;;;;;;;22.46;53.37;101611.41;5011364;28;20046;-70
2021/09/25 09:33:49;;;;;;;4.78;2.20;;;;;;;22.50;52.96;101617.25;5012181;28;20087;-68
2021/09/25 09:36:18;;;;;;;5.47;2.05;;;;;;;22.51;53.05;101613.66;5011112;28;20026;-70
2021/09/25 09:38:55;;;;;;;5.60;1.90;;;;;;;22.54;52.96;101609.84;5011897;28;20064;-72
2021/09/25 09:41:25;;;;;;;6.10;2.40;;;;;;;22.56;52.81;101610.59;5012044;28;20022;-73
2021/09/25 09:43:52;;;;;;;4.68;2.08;;;;;;;22.57;52.91;101610.44;5009037;28;20117;-71
2021/09/25 09:46:18;;;;;;;4.47;2.05;;;;;;;22.62;52.83;101610.03;5010877;28;20029;-70
2021/09/25 09:48:45;;;;;;;4.13;2.05;;;;;;;22.62;52.77;101607.38;5011095;28;20025;-70
2021/09/25 09:51:11;;;;;;;4.55;2.30;;;;;;;22.60;53.02;101606.66;5010957;28;20378;-70
2021/09/25 09:53:46;;;;;;;4.97;1.92;;;;;;;22.61;52.78;101598.56;5010520;28;20022;-68
2021/09/25 09:56:23;;;;;;;3.72;2.03;;;;;;;22.64;52.62;101603.59;5010647;28;20053;-68
2021/09/25 09:59:08;;;;;;;5.30;2.10;;;;;;;22.67;52.44;101612.28;5010575;28;20029;-70
2021/09/25 10:01:35;;;;;;;5.07;1.95;;;;;;;22.68;52.17;101606.00;5010429;28;20025;-67
2021/09/25 10:04:02;;;;;;;4.20;2.03;;;;;;;22.66;52.48;101608.78;5009420;28;20092;-69
2021/09/25 10:06:28;;;;;;;4.32;1.88;;;;;;;22.63;52.36;101601.91;5010874;28;20028;-69
2021/09/25 10:08:55;;;;;;;6.38;2.55;;;;;;;22.61;52.27;101601.22;5010982;28;20050;-69
2021/09/25 10:11:22;;;;;;;6.07;2.33;;;;;;;22.63;52.63;101599.25;5009550;28;20022;-69
2021/09/25 10:13:53;;;;;;;5.13;2.42;;;;;;;22.66;52.76;101599.97;5010541;28;20042;-67
2021/09/25 10:16:19;;;;;;;7.10;1.92;;;;;;;22.69;52.70;101597.06;5011441;28;20031;-64
2021/09/25 10:18:45;;;;;;;4.00;1.88;;;;;;;22.70;52.74;101601.38;5010911;28;20028;-65
2021/09/25 10:21:13;;;;;;;5.20;2.13;;;;;;;22.71;52.54;101603.88;5011385;28;20033;-76
2021/09/25 10:23:48;;;;;;;5.13;1.90;;;;;;;22.72;52.71;101599.44;5011034;28;20037;-71
2021/09/25 10:26:16;;;;;;;5.57;2.00;;;;;;;22.73;52.20;101599.31;5016042;28;20047;-64
2021/09/25 10:28:53;;;;;;;4.13;1.85;;;;;;;22.74;52.47;101589.50;5028896;28;20507;-69
2021/09/25 10:31:21;;;;;;;5.35;2.00;;;;;;;22.71;52.42;101595.09;5029516;28;20026;-70
2021/09/25 10:34:11;;;;;;;4.93;2.10;;;;;;;22.68;52.77;101588.22;5029333;28;20026;-69
2021/09/25 10:36:54;;;;;;;5.05;2.00;;;;;;;22.67;52.72;101585.69;5028872;28;20060;-69
2021/09/25 10:39:24;;;;;;;6.13;2.30;;;;;;;22.64;52.38;101590.31;5028547;28;20060;-71
2021/09/25 10:41:57;;;;;;;4.32;2.00;;;;;;;22.64;52.46;101585.00;5028444;28;20030;-72
2021/09/25 10:44:33;;;;;;;4.28;1.80;;;;;;;22.63;52.30;101585.97;5030433;28;20051;-75
2021/09/25 10:47:20;;;;;;;4.35;2.00;;;;;;;22.64;52.57;101584.19;5029207;28;20104;-70
2021/09/25 10:49:56;;;;;;;5.43;2.15;;;;;;;22.68;52.75;101587.41;5029523;28;20033;-69
2021/09/25 10:52:25;;;;;;;4.10;2.08;;;;;;;22.71;52.52;101581.81;5030402;28;20029;-72
2021/09/25 10:55:17;;;;;;;5.70;2.10;;;;;;;22.74;52.47;101578.88;5029527;28;20116;-76
2021/09/25 10:57:43;;;;;;;4.53;2.03;;;;;;;22.77;52.05;101579.44;5029813;28;20048;-74
2021/09/25 11:00:21;;;;;;;4.00;2.03;;;;;;;22.79;52.34;101579.28;5029938;28;20025;-73
2021/09/25 11:02:47;;;;;;;5.18;1.85;;;;;;;22.83;52.26;101576.22;5030374;28;20060;-72
2021/09/25 11:05:59;;;;;;;5.25;1.67;;;;;;;22.86;52.35;101576.91;5027799;28;20037;-78
2021/09/25 11:08:31;;;;;;;3.95;2.15;;;;;;;22.87;52.07;101575.97;5020640;28;20478;-77
2021/09/25 11:11:18;;;;;;;4.07;2.25;;;;;;;22.88;52.17;101580.31;5010177;28;20030;-71
2021/09/25 11:14:02;;;;;;;5.05;1.90;;;;;;;22.87;52.04;101571.47;5010340;28;20022;-71
2021/09/25 11:16:43;;;;;;;4.40;1.90;;;;;;;22.87;52.03;101571.47;5008430;28;20034;-76
2021/09/25 11:19:09;;;;;;;5.80;1.60;;;;;;;22.89;52.06;101566.00;5010547;28;20073;-76
2021/09/25 11:21:35;;;;;;;3.88;1.90;;;;;;;22.88;51.84;101559.03;5010061;28;20168;-73
2021/09/25 11:24:00;;;;;;;5.45;2.17;;;;;;;22.82;52.44;101563.91;5010066;28;20033;-74
2021/09/25 11:26:26;;;;;;;3.47;1.88;;;;;;;22.85;52.50;101564.63;5009371;28;20041;-74